createdAt,value
2018-12-31T00:00:32.033Z,28.70
2018-12-31T00:03:20.786Z,44.95
2018-12-31T00:06:09.654Z,28.75
2018-12-31T00:08:58.528Z,34.92
2018-12-31T00:11:47.451Z,34.18
2018-12-31T00:14:36.652Z,31.35
2018-12-31T00:17:25.427Z,36.93
2018-12-31T00:20:14.457Z,37.65
2018-12-31T00:23:03.057Z,33.33
2018-12-31T00:25:52.292Z,27.50
2018-12-31T00:28:41.221Z,40.12
2018-12-31T00:31:30.293Z,35.00
2018-12-31T00:34:19.261Z,28.27
2018-12-31T00:37:07.882Z,40.52
2018-12-31T00:39:56.549Z,24.20
2018-12-31T00:42:45.780Z,38.02
2018-12-31T00:45:34.471Z,36.55
2018-12-31T00:48:23.619Z,32.73
2018-12-31T00:51:12.604Z,42.78
2018-12-31T00:54:01.667Z,26.37
2018-12-31T00:56:50.752Z,40.03
2018-12-31T00:59:39.938Z,35.20
2018-12-31T01:02:28.531Z,34.33
2018-12-31T01:05:17.148Z,41.75
2018-12-31T01:08:05.932Z,39.38
2018-12-31T01:10:54.704Z,36.95
2018-12-31T01:13:43.004Z,38.38
2018-12-31T01:16:31.472Z,42.90
2018-12-31T01:19:19.968Z,48.00
2018-12-31T01:22:09.117Z,37.33
2018-12-31T01:24:58.425Z,41.60
2018-12-31T01:27:47.852Z,40.50
2018-12-31T01:30:36.910Z,30.90
2018-12-31T01:33:25.677Z,39.78
2018-12-31T01:36:14.701Z,44.95
2018-12-31T01:39:04.603Z,39.78
2018-12-31T01:41:53.688Z,38.70
2018-12-31T01:44:43.110Z,38.55
2018-12-31T01:47:31.921Z,32.45
2018-12-31T01:50:20.849Z,33.83
2018-12-31T01:53:09.577Z,43.95
2018-12-31T01:55:58.245Z,45.45
2018-12-31T01:58:46.652Z,37.20
2018-12-31T02:01:35.487Z,34.18
2018-12-31T02:04:24.383Z,41.98
2018-12-31T02:07:13.743Z,35.63
2018-12-31T02:10:02.389Z,29.12
2018-12-31T02:12:51.492Z,37.42
2018-12-31T02:15:40.122Z,42.90
2018-12-31T02:18:28.535Z,44.77
2018-12-31T02:21:17.417Z,46.05
2018-12-31T02:24:05.984Z,38.13
2018-12-31T02:26:54.688Z,27.07
2018-12-31T02:29:43.046Z,44.58
2018-12-31T02:32:31.840Z,33.02
2018-12-31T02:35:20.724Z,36.08
2018-12-31T02:38:10.026Z,41.73
2018-12-31T02:40:59.070Z,44.75
2018-12-31T02:43:48.270Z,49.85
2018-12-31T02:46:37.112Z,35.63
2018-12-31T02:49:26.354Z,44.10
2018-12-31T02:52:15.015Z,50.48
2018-12-31T02:55:04.160Z,49.77
2018-12-31T02:57:53.088Z,44.48
2018-12-31T03:00:41.940Z,40.48
2018-12-31T03:03:30.937Z,37.25
2018-12-31T03:06:20.219Z,38.02
2018-12-31T03:09:09.446Z,52.08
2018-12-31T03:11:58.532Z,49.20
2018-12-31T03:14:47.159Z,53.78
2018-12-31T03:17:35.781Z,47.17
2018-12-31T03:20:25.021Z,41.48
2018-12-31T03:23:13.848Z,48.28
2018-12-31T03:26:02.965Z,61.28
2018-12-31T03:28:51.996Z,49.53
2018-12-31T03:31:40.399Z,59.35
2018-12-31T03:34:28.705Z,47.67
2018-12-31T03:37:17.035Z,44.60
2018-12-31T03:40:06.144Z,56.13
2018-12-31T03:42:55.305Z,47.00
2018-12-31T03:45:44.125Z,56.30
2018-12-31T03:48:33.403Z,54.05
2018-12-31T03:51:22.455Z,50.80
2018-12-31T03:54:11.588Z,46.83
2018-12-31T03:57:00.344Z,45.78
2018-12-31T03:59:49.364Z,43.83
2018-12-31T04:02:38.566Z,50.70
2018-12-31T04:05:27.516Z,53.78
2018-12-31T04:08:16.709Z,54.45
2018-12-31T04:11:05.458Z,50.60
2018-12-31T04:13:54.205Z,48.13
2018-12-31T04:16:43.352Z,46.08
2018-12-31T04:19:32.407Z,41.48
2018-12-31T04:22:21.160Z,46.83
2018-12-31T04:25:10.339Z,44.38
2018-12-31T04:27:59.459Z,39.80
2018-12-31T04:30:47.686Z,44.03
2018-12-31T04:33:36.725Z,42.75
2018-12-31T04:36:25.798Z,43.75
2018-12-31T04:39:14.715Z,44.42
2018-12-31T04:42:03.745Z,40.85
2018-12-31T04:44:52.870Z,44.23
2018-12-31T04:47:41.610Z,37.83
2018-12-31T04:50:29.977Z,46.45
2018-12-31T04:53:18.877Z,39.25
2018-12-31T04:56:08.003Z,42.25
2018-12-31T04:58:57.107Z,44.80
2018-12-31T05:01:46.106Z,41.48
2018-12-31T05:04:34.859Z,40.23
2018-12-31T05:07:23.905Z,38.75
2018-12-31T05:10:13.098Z,42.23
2018-12-31T05:13:02.035Z,45.63
2018-12-31T05:15:50.956Z,72.75
2018-12-31T05:18:39.998Z,48.35
2018-12-31T05:21:28.920Z,40.67
2018-12-31T05:24:17.776Z,47.85
2018-12-31T05:27:07.103Z,56.45
2018-12-31T05:29:55.348Z,47.80
2018-12-31T05:32:44.725Z,62.98
2018-12-31T05:35:33.256Z,58.28
2018-12-31T05:38:22.538Z,55.90
2018-12-31T05:41:11.634Z,58.15
2018-12-31T05:44:00.708Z,74.37
2018-12-31T05:46:49.286Z,63.30
2018-12-31T05:49:38.222Z,55.30
2018-12-31T05:52:27.056Z,73.05
2018-12-31T05:55:16.223Z,73.67
2018-12-31T05:58:05.371Z,58.80
2018-12-31T06:00:54.593Z,78.87
2018-12-31T06:03:43.135Z,61.58
2018-12-31T06:06:32.060Z,54.05
2018-12-31T06:09:21.313Z,64.30
2018-12-31T06:12:10.159Z,64.72
2018-12-31T06:14:58.575Z,56.25
2018-12-31T06:17:47.150Z,66.92
2018-12-31T06:20:35.452Z,60.43
2018-12-31T06:23:24.204Z,61.98
2018-12-31T06:26:13.153Z,56.40
2018-12-31T06:29:02.346Z,52.60
2018-12-31T06:31:51.189Z,55.00
2018-12-31T06:34:39.820Z,48.78
2018-12-31T06:37:28.681Z,53.73
2018-12-31T06:40:17.771Z,61.95
2018-12-31T06:43:06.647Z,48.15
2018-12-31T06:45:55.362Z,53.58
2018-12-31T06:48:44.351Z,42.23
2018-12-31T06:51:32.959Z,42.38
2018-12-31T06:54:22.231Z,33.55
2018-12-31T06:57:11.381Z,36.58
2018-12-31T07:00:00.163Z,33.08
2018-12-31T07:02:49.156Z,32.93
2018-12-31T07:05:38.174Z,31.12
2018-12-31T07:08:27.023Z,36.10
2018-12-31T07:11:16.099Z,33.55
2018-12-31T07:14:04.923Z,31.57
2018-12-31T07:16:54.086Z,34.58
2018-12-31T07:19:43.068Z,29.27
2018-12-31T07:22:32.105Z,34.48
2018-12-31T07:25:21.046Z,35.73
2018-12-31T07:28:10.137Z,35.78
2018-12-31T07:30:58.892Z,34.80
2018-12-31T07:33:47.900Z,35.88
2018-12-31T07:36:36.708Z,37.58
2018-12-31T07:39:25.700Z,35.52
2018-12-31T07:42:14.134Z,35.10
2018-12-31T07:45:03.165Z,41.10
2018-12-31T07:47:51.982Z,41.25
2018-12-31T07:50:41.189Z,39.00
2018-12-31T07:53:30.101Z,40.12
2018-12-31T07:56:19.151Z,39.92
2018-12-31T07:59:08.474Z,36.48
2018-12-31T08:01:57.518Z,35.00
2018-12-31T08:04:46.583Z,33.13
2018-12-31T08:07:35.530Z,36.25
2018-12-31T08:10:24.510Z,36.68
2018-12-31T08:13:13.317Z,33.80
2018-12-31T08:16:02.630Z,36.42
2018-12-31T08:18:51.615Z,36.55
2018-12-31T08:21:40.639Z,36.10
2018-12-31T08:24:29.427Z,30.40
2018-12-31T08:27:18.498Z,29.77
2018-12-31T08:30:08.230Z,35.00
2018-12-31T08:32:57.150Z,30.30
2018-12-31T08:35:46.178Z,26.48
2018-12-31T08:38:35.515Z,35.00
2018-12-31T08:41:24.089Z,31.33
2018-12-31T08:44:13.021Z,36.80
2018-12-31T08:47:01.395Z,32.80
2018-12-31T08:49:50.426Z,37.80
2018-12-31T08:52:39.282Z,36.20
2018-12-31T08:55:28.413Z,34.40
2018-12-31T08:58:17.485Z,40.10
2018-12-31T09:01:06.491Z,42.08
2018-12-31T09:03:55.606Z,40.92
2018-12-31T09:06:44.514Z,52.65
2018-12-31T09:09:33.351Z,34.75
2018-12-31T09:12:22.055Z,42.00
2018-12-31T09:15:10.728Z,46.90
2018-12-31T09:17:59.535Z,46.92
2018-12-31T09:20:48.054Z,37.55
2018-12-31T09:23:37.048Z,34.88
2018-12-31T09:26:26.195Z,41.23
2018-12-31T09:29:14.572Z,39.10
2018-12-31T09:32:02.891Z,49.15
2018-12-31T09:34:51.863Z,38.88
2018-12-31T09:37:40.970Z,32.45
2018-12-31T09:40:30.181Z,34.60
2018-12-31T09:43:19.134Z,35.48
2018-12-31T09:46:08.099Z,34.55
2018-12-31T09:48:56.989Z,35.30
2018-12-31T09:51:46.172Z,30.02
2018-12-31T09:54:34.712Z,34.18
2018-12-31T09:57:23.704Z,39.00
2018-12-31T10:00:12.553Z,29.92
2018-12-31T10:03:01.528Z,29.85
2018-12-31T10:05:50.570Z,32.00
2018-12-31T10:08:39.496Z,24.95
2018-12-31T10:11:28.715Z,30.55
2018-12-31T10:14:18.004Z,29.60
2018-12-31T10:17:06.853Z,24.35
2018-12-31T10:19:55.797Z,29.18
2018-12-31T10:22:44.996Z,32.98
2018-12-31T10:25:33.907Z,25.65
2018-12-31T10:28:22.886Z,26.00
2018-12-31T10:31:11.956Z,22.75
2018-12-31T10:34:00.893Z,19.87
2018-12-31T10:36:50.058Z,24.57
2018-12-31T10:39:38.692Z,39.48
2018-12-31T10:42:27.864Z,30.65
2018-12-31T10:45:16.538Z,23.15
2018-12-31T10:48:05.346Z,21.82
2018-12-31T10:50:54.350Z,21.30
2018-12-31T10:53:43.485Z,20.95
2018-12-31T10:56:32.293Z,19.60
2018-12-31T10:59:21.090Z,21.85
2018-12-31T11:02:10.083Z,23.67
2018-12-31T11:05:00.913Z,21.25
2018-12-31T11:07:49.749Z,23.18
2018-12-31T11:10:38.838Z,21.12
2018-12-31T11:13:27.870Z,22.07
2018-12-31T11:16:16.417Z,23.62
2018-12-31T11:19:05.504Z,18.40
2018-12-31T11:21:55.751Z,19.48
2018-12-31T11:24:44.555Z,18.52
2018-12-31T11:27:34.131Z,20.80
2018-12-31T11:30:23.051Z,17.30
2018-12-31T11:33:12.032Z,17.55
2018-12-31T11:36:00.681Z,15.75
2018-12-31T11:38:49.039Z,16.10
2018-12-31T11:41:38.098Z,11.15
2018-12-31T11:44:27.168Z,17.17
2018-12-31T11:47:16.042Z,14.65
2018-12-31T11:50:04.749Z,16.40
2018-12-31T11:52:53.687Z,15.68
2018-12-31T11:55:42.420Z,14.07
2018-12-31T11:58:31.606Z,13.13
2018-12-31T12:01:20.591Z,16.55
2018-12-31T12:04:09.935Z,17.90
2018-12-31T12:06:59.048Z,19.12
2018-12-31T12:09:47.655Z,16.52
2018-12-31T12:12:36.493Z,18.42
2018-12-31T12:15:25.499Z,22.37
2018-12-31T12:18:14.304Z,26.52
2018-12-31T12:21:02.661Z,24.20
2018-12-31T12:23:51.681Z,26.55
2018-12-31T12:26:40.303Z,24.98
2018-12-31T12:29:29.274Z,24.47
2018-12-31T12:32:17.982Z,23.52
2018-12-31T12:35:07.040Z,19.48
2018-12-31T12:37:55.971Z,22.75
2018-12-31T12:40:44.841Z,23.30
2018-12-31T12:43:33.746Z,20.05
2018-12-31T12:46:22.677Z,13.70
2018-12-31T12:49:11.483Z,18.02
2018-12-31T12:52:00.588Z,15.83
2018-12-31T12:54:49.722Z,15.68
2018-12-31T12:57:38.734Z,14.38
2018-12-31T13:00:27.292Z,12.45
2018-12-31T13:03:16.317Z,14.25
2018-12-31T13:06:05.481Z,20.23
2018-12-31T13:08:54.319Z,23.92
2018-12-31T13:11:43.579Z,25.32
2018-12-31T13:14:32.377Z,26.45
2018-12-31T13:17:21.507Z,24.32
2018-12-31T13:20:10.076Z,22.07
2018-12-31T13:22:59.357Z,21.68
2018-12-31T13:25:48.208Z,25.70
2018-12-31T13:28:37.341Z,29.40
2018-12-31T13:31:26.434Z,25.92
2018-12-31T13:34:15.316Z,41.50
2018-12-31T13:37:03.638Z,28.73
2018-12-31T13:39:52.689Z,28.95
2018-12-31T13:42:42.007Z,30.20
2018-12-31T13:45:30.511Z,30.80
2018-12-31T13:48:19.166Z,23.90
2018-12-31T13:51:07.668Z,34.15
2018-12-31T13:53:56.598Z,30.23
2018-12-31T13:56:45.170Z,29.70
2018-12-31T13:59:34.304Z,36.33
2018-12-31T14:02:23.375Z,30.02
2018-12-31T14:05:13.065Z,32.20
2018-12-31T14:08:01.888Z,29.07
2018-12-31T14:10:50.802Z,28.20
2018-12-31T14:13:39.792Z,24.50
2018-12-31T14:16:28.552Z,34.18
2018-12-31T14:19:17.696Z,34.40
2018-12-31T14:22:06.444Z,33.63
2018-12-31T14:24:54.981Z,34.50
2018-12-31T14:27:43.914Z,34.40
2018-12-31T14:30:32.984Z,35.05
2018-12-31T14:33:21.747Z,32.25
2018-12-31T14:36:11.048Z,43.80
2018-12-31T14:39:00.000Z,37.15
2018-12-31T14:41:48.844Z,36.70
2018-12-31T14:44:38.136Z,40.33
2018-12-31T14:47:27.017Z,27.50
2018-12-31T14:50:15.557Z,42.33
2018-12-31T14:53:04.151Z,40.40
2018-12-31T14:55:53.015Z,39.98
2018-12-31T14:58:42.095Z,43.40
2018-12-31T15:01:31.477Z,34.38
2018-12-31T15:04:22.529Z,43.33
2018-12-31T15:07:11.655Z,42.20
2018-12-31T15:10:00.542Z,36.85
2018-12-31T15:12:49.659Z,36.75
2018-12-31T15:15:38.604Z,35.20
2018-12-31T15:18:27.814Z,38.92
2018-12-31T15:21:16.468Z,34.48
2018-12-31T15:24:05.323Z,40.78
2018-12-31T15:26:54.485Z,35.95
2018-12-31T15:29:43.120Z,31.10
2018-12-31T15:32:32.127Z,38.42
2018-12-31T15:35:20.939Z,39.60
2018-12-31T15:38:09.906Z,45.83
2018-12-31T15:40:58.934Z,47.88
2018-12-31T15:43:47.687Z,43.65
2018-12-31T15:46:36.646Z,41.05
2018-12-31T15:49:25.564Z,34.98
2018-12-31T15:52:14.499Z,36.50
2018-12-31T15:55:02.808Z,33.35
2018-12-31T15:57:51.974Z,38.58
2018-12-31T16:00:41.234Z,36.65
2018-12-31T16:03:29.972Z,37.03
2018-12-31T16:06:19.403Z,36.17
2018-12-31T16:09:08.603Z,30.77
2018-12-31T16:11:57.803Z,43.95
2018-12-31T16:14:47.087Z,40.58
2018-12-31T16:17:36.348Z,41.90
2018-12-31T16:20:25.394Z,42.70
2018-12-31T16:23:15.076Z,31.87
2018-12-31T16:26:04.037Z,41.25
2018-12-31T16:28:53.408Z,32.10
2018-12-31T16:31:42.769Z,26.07
2018-12-31T16:34:31.480Z,38.65
2018-12-31T16:37:20.525Z,33.30
2018-12-31T16:40:10.191Z,29.30
2018-12-31T16:42:59.142Z,43.17
2018-12-31T16:45:48.671Z,34.10
2018-12-31T16:48:37.664Z,36.55
2018-12-31T16:51:27.477Z,38.23
2018-12-31T16:54:15.807Z,28.83
2018-12-31T16:57:05.263Z,26.25
2018-12-31T16:59:54.754Z,28.92
2018-12-31T17:02:43.457Z,34.18
2018-12-31T17:05:32.168Z,34.83
2018-12-31T17:08:21.566Z,31.17
2018-12-31T17:11:10.482Z,32.98
2018-12-31T17:13:59.593Z,34.40
2018-12-31T17:16:48.316Z,22.07
2018-12-31T17:19:36.795Z,35.55
2018-12-31T17:22:25.983Z,30.72
2018-12-31T17:25:15.024Z,38.85
2018-12-31T17:28:03.380Z,39.15
2018-12-31T17:30:51.807Z,40.03
2018-12-31T17:33:40.769Z,36.03
2018-12-31T17:36:29.818Z,40.65
2018-12-31T17:39:18.774Z,47.83
2018-12-31T17:42:09.764Z,45.12
2018-12-31T17:44:58.765Z,48.75
2018-12-31T17:47:47.807Z,48.05
2018-12-31T17:50:36.159Z,43.70
2018-12-31T17:53:24.634Z,43.33
2018-12-31T17:56:13.496Z,61.50
2018-12-31T17:59:02.586Z,46.88
2018-12-31T18:01:51.560Z,53.48
2018-12-31T18:04:40.440Z,53.50
2018-12-31T18:07:29.491Z,50.45
2018-12-31T18:10:18.032Z,36.17
2018-12-31T18:13:06.891Z,42.83
2018-12-31T18:15:55.606Z,48.38
2018-12-31T18:18:44.687Z,34.88
2018-12-31T18:21:34.248Z,29.60
2018-12-31T18:24:23.196Z,27.70
2018-12-31T18:27:12.123Z,46.92
2018-12-31T18:30:01.000Z,26.05
2018-12-31T18:32:49.959Z,24.25
2018-12-31T18:35:39.059Z,21.73
2018-12-31T18:38:28.542Z,26.70
2018-12-31T18:41:17.373Z,28.70
2018-12-31T18:44:06.382Z,27.10
2018-12-31T18:46:54.820Z,23.20
2018-12-31T18:49:43.850Z,27.13
2018-12-31T18:52:33.223Z,50.67
2018-12-31T18:55:22.603Z,29.18
2018-12-31T18:58:11.898Z,33.60
2018-12-31T19:01:00.637Z,31.80
2018-12-31T19:03:50.232Z,29.92
2018-12-31T19:06:38.990Z,28.07
2018-12-31T19:09:28.771Z,26.65
2018-12-31T19:12:17.729Z,21.80
2018-12-31T19:15:08.432Z,23.20
2018-12-31T19:17:57.551Z,29.18
2018-12-31T19:20:47.172Z,21.57
2018-12-31T19:23:36.424Z,22.13
2018-12-31T19:26:25.701Z,30.72
2018-12-31T19:29:14.898Z,38.63
2018-12-31T19:32:04.014Z,35.98
2018-12-31T19:34:52.370Z,76.95
2018-12-31T19:37:41.524Z,62.03
2018-12-31T19:40:30.650Z,53.33
2018-12-31T19:43:19.664Z,28.45
2018-12-31T19:46:08.583Z,35.03
2018-12-31T19:48:56.864Z,22.90
2018-12-31T19:51:46.007Z,32.17
2018-12-31T19:54:35.145Z,19.60
2018-12-31T19:57:24.260Z,23.00
2018-12-31T20:00:13.612Z,25.97
2018-12-31T20:03:02.673Z,25.27
2018-12-31T20:05:51.557Z,23.80
2018-12-31T20:08:40.603Z,27.45
2018-12-31T20:11:29.527Z,23.35
2018-12-31T20:14:17.925Z,27.35
2018-12-31T20:17:06.883Z,25.12
2018-12-31T20:19:55.915Z,23.70
2018-12-31T20:22:44.582Z,25.37
2018-12-31T20:25:33.137Z,26.80
2018-12-31T20:28:21.859Z,33.55
2018-12-31T20:31:10.494Z,47.73
2018-12-31T20:34:00.510Z,32.53
2018-12-31T20:36:49.529Z,47.17
2018-12-31T20:39:38.697Z,38.75
2018-12-31T20:42:28.305Z,39.48
2018-12-31T20:45:17.572Z,34.95
2018-12-31T20:48:07.060Z,39.40
2018-12-31T20:50:55.468Z,33.10
2018-12-31T20:53:44.584Z,32.33
2018-12-31T20:56:33.753Z,30.72
2018-12-31T20:59:22.643Z,37.03
2018-12-31T21:02:11.706Z,24.40
2018-12-31T21:05:00.525Z,23.40
2018-12-31T21:07:49.518Z,24.65
2018-12-31T21:10:37.750Z,27.37
2018-12-31T21:13:26.763Z,24.67
2018-12-31T21:16:15.981Z,28.32
2018-12-31T21:19:04.838Z,26.42
2018-12-31T21:21:54.009Z,32.53
2018-12-31T21:24:42.608Z,35.15
2018-12-31T21:27:31.518Z,26.33
2018-12-31T21:30:20.223Z,27.90
2018-12-31T21:33:09.191Z,31.87
2018-12-31T21:35:58.327Z,31.93
2018-12-31T21:38:47.545Z,35.68
2018-12-31T21:41:36.566Z,29.80
2018-12-31T21:44:25.590Z,26.68
2018-12-31T21:47:14.319Z,28.40
2018-12-31T21:50:03.749Z,40.20
2018-12-31T21:52:52.635Z,31.23
2018-12-31T21:55:41.530Z,23.22
2018-12-31T21:58:30.694Z,21.62
2018-12-31T22:01:19.801Z,23.27
2018-12-31T22:04:09.062Z,20.00
2018-12-31T22:06:58.248Z,27.65
2018-12-31T22:09:49.162Z,16.67
2018-12-31T22:12:37.885Z,38.35
2018-12-31T22:15:27.578Z,25.77
2018-12-31T22:18:16.637Z,15.70
2018-12-31T22:21:05.675Z,18.92
2018-12-31T22:23:54.378Z,18.70
2018-12-31T22:26:43.261Z,24.30
2018-12-31T22:29:32.178Z,25.35
2018-12-31T22:32:20.738Z,26.97
2018-12-31T22:35:10.046Z,26.95
2018-12-31T22:37:59.109Z,21.77
2018-12-31T22:40:48.393Z,22.13
2018-12-31T22:43:37.416Z,24.15
2018-12-31T22:46:26.617Z,25.35
2018-12-31T22:49:15.709Z,33.98
2018-12-31T22:52:04.535Z,30.85
2018-12-31T22:54:53.253Z,40.58
2018-12-31T22:57:42.120Z,29.05
2018-12-31T23:00:32.013Z,41.80
2018-12-31T23:03:20.997Z,162.65
2018-12-31T23:06:09.913Z,305.15
2018-12-31T23:08:58.931Z,764.45
2018-12-31T23:11:47.768Z,377.57
2018-12-31T23:14:36.433Z,344.30
2018-12-31T23:17:24.747Z,323.73
2018-12-31T23:20:15.500Z,372.10
2018-12-31T23:23:04.706Z,408.30
2018-12-31T23:25:53.863Z,307.85
2018-12-31T23:28:42.894Z,261.45
2018-12-31T23:31:31.617Z,245.35
2018-12-31T23:34:20.640Z,188.45
2018-12-31T23:37:09.705Z,167.57
2018-12-31T23:39:58.866Z,112.70
2018-12-31T23:42:47.727Z,111.15
2018-12-31T23:45:36.861Z,107.95
2018-12-31T23:48:25.261Z,88.80
2018-12-31T23:51:14.561Z,66.15
2018-12-31T23:54:03.252Z,39.75
2018-12-31T23:56:51.879Z,35.80
2018-12-31T23:59:41.029Z,38.70
